sensor_id;sensor_type;location;lat;lon;timestamp;P1;durP1;ratioP1;P2;durP2;ratioP2
28625;SDS011;18905;42.668;23.364;2023-12-14T00:00:34;27.73;;;15.23;;
28625;SDS011;18905;42.668;23.364;2023-12-14T00:02:59;36.38;;;16.02;;
28625;SDS011;18905;42.668;23.364;2023-12-14T00:05:25;33.20;;;17.15;;
28625;SDS011;18905;42.668;23.364;2023-12-14T00:07:50;35.78;;;17.33;;
28625;SDS011;18905;42.668;23.364;2023-12-14T00:10:15;35.45;;;16.75;;
28625;SDS011;18905;42.668;23.364;2023-12-14T00:12:43;33.72;;;17.80;;
28625;SDS011;18905;42.668;23.364;2023-12-14T00:15:08;33.15;;;16.40;;
28625;SDS011;18905;42.668;23.364;2023-12-14T00:17:34;31.55;;;16.73;;
28625;SDS011;18905;42.668;23.364;2023-12-14T00:20:00;30.25;;;15.85;;
28625;SDS011;18905;42.668;23.364;2023-12-14T00:22:25;33.90;;;15.88;;
28625;SDS011;18905;42.668;23.364;2023-12-14T00:24:50;35.88;;;16.50;;
28625;SDS011;18905;42.668;23.364;2023-12-14T00:27:16;32.90;;;16.27;;
28625;SDS011;18905;42.668;23.364;2023-12-14T00:29:41;28.75;;;15.65;;
28625;SDS011;18905;42.668;23.364;2023-12-14T00:32:07;33.80;;;16.40;;
28625;SDS011;18905;42.668;23.364;2023-12-14T00:34:32;29.70;;;15.93;;
28625;SDS011;18905;42.668;23.364;2023-12-14T00:36:57;33.70;;;16.60;;
28625;SDS011;18905;42.668;23.364;2023-12-14T00:39:23;28.23;;;15.25;;
28625;SDS011;18905;42.668;23.364;2023-12-14T00:41:48;30.10;;;15.95;;
28625;SDS011;18905;42.668;23.364;2023-12-14T00:44:14;33.88;;;16.98;;
28625;SDS011;18905;42.668;23.364;2023-12-14T00:46:39;29.20;;;15.63;;
28625;SDS011;18905;42.668;23.364;2023-12-14T00:49:06;30.17;;;14.88;;
28625;SDS011;18905;42.668;23.364;2023-12-14T00:51:32;30.05;;;16.70;;
28625;SDS011;18905;42.668;23.364;2023-12-14T00:53:57;28.50;;;15.00;;
28625;SDS011;18905;42.668;23.364;2023-12-14T00:56:22;32.75;;;15.75;;
28625;SDS011;18905;42.668;23.364;2023-12-14T00:58:48;32.42;;;15.85;;
28625;SDS011;18905;42.668;23.364;2023-12-14T01:01:13;29.45;;;15.02;;
28625;SDS011;18905;42.668;23.364;2023-12-14T01:03:38;28.15;;;14.63;;
28625;SDS011;18905;42.668;23.364;2023-12-14T01:06:04;27.85;;;14.65;;
28625;SDS011;18905;42.668;23.364;2023-12-14T01:08:31;29.23;;;15.00;;
28625;SDS011;18905;42.668;23.364;2023-12-14T01:10:57;29.08;;;15.35;;
28625;SDS011;18905;42.668;23.364;2023-12-14T01:13:22;31.13;;;15.55;;
28625;SDS011;18905;42.668;23.364;2023-12-14T01:15:47;30.58;;;15.25;;
28625;SDS011;18905;42.668;23.364;2023-12-14T01:18:13;29.92;;;15.43;;
28625;SDS011;18905;42.668;23.364;2023-12-14T01:20:39;28.23;;;14.25;;
28625;SDS011;18905;42.668;23.364;2023-12-14T01:23:04;29.05;;;14.55;;
28625;SDS011;18905;42.668;23.364;2023-12-14T01:25:29;28.95;;;14.77;;
28625;SDS011;18905;42.668;23.364;2023-12-14T01:27:55;27.90;;;14.45;;
28625;SDS011;18905;42.668;23.364;2023-12-14T01:30:20;27.88;;;13.80;;
28625;SDS011;18905;42.668;23.364;2023-12-14T01:32:46;27.60;;;14.43;;
28625;SDS011;18905;42.668;23.364;2023-12-14T01:35:11;24.58;;;14.25;;
28625;SDS011;18905;42.668;23.364;2023-12-14T01:37:37;28.80;;;14.50;;
28625;SDS011;18905;42.668;23.364;2023-12-14T01:40:03;28.88;;;15.02;;
28625;SDS011;18905;42.668;23.364;2023-12-14T01:42:29;27.17;;;14.43;;
28625;SDS011;18905;42.668;23.364;2023-12-14T01:44:55;24.67;;;13.68;;
28625;SDS011;18905;42.668;23.364;2023-12-14T01:47:20;25.85;;;14.20;;
28625;SDS011;18905;42.668;23.364;2023-12-14T01:49:46;27.05;;;14.82;;
28625;SDS011;18905;42.668;23.364;2023-12-14T01:52:11;28.88;;;12.95;;
28625;SDS011;18905;42.668;23.364;2023-12-14T01:54:36;24.00;;;13.43;;
28625;SDS011;18905;42.668;23.364;2023-12-14T01:57:02;28.00;;;15.13;;
28625;SDS011;18905;42.668;23.364;2023-12-14T01:59:27;25.00;;;13.85;;
28625;SDS011;18905;42.668;23.364;2023-12-14T02:01:53;27.73;;;14.32;;
28625;SDS011;18905;42.668;23.364;2023-12-14T02:04:22;29.23;;;15.60;;
28625;SDS011;18905;42.668;23.364;2023-12-14T02:06:48;30.73;;;14.73;;
28625;SDS011;18905;42.668;23.364;2023-12-14T02:09:14;27.13;;;15.07;;
28625;SDS011;18905;42.668;23.364;2023-12-14T02:11:39;27.33;;;14.70;;
28625;SDS011;18905;42.668;23.364;2023-12-14T02:14:05;30.35;;;15.77;;
28625;SDS011;18905;42.668;23.364;2023-12-14T02:16:31;31.02;;;15.82;;
28625;SDS011;18905;42.668;23.364;2023-12-14T02:18:57;27.63;;;15.50;;
28625;SDS011;18905;42.668;23.364;2023-12-14T02:21:23;28.10;;;15.55;;
28625;SDS011;18905;42.668;23.364;2023-12-14T02:23:48;31.05;;;16.20;;
28625;SDS011;18905;42.668;23.364;2023-12-14T02:26:14;26.98;;;15.13;;
28625;SDS011;18905;42.668;23.364;2023-12-14T02:28:39;29.05;;;15.40;;
28625;SDS011;18905;42.668;23.364;2023-12-14T02:31:05;28.58;;;15.73;;
28625;SDS011;18905;42.668;23.364;2023-12-14T02:33:30;30.38;;;14.82;;
28625;SDS011;18905;42.668;23.364;2023-12-14T02:35:56;32.30;;;16.17;;
28625;SDS011;18905;42.668;23.364;2023-12-14T02:38:22;29.33;;;15.13;;
28625;SDS011;18905;42.668;23.364;2023-12-14T02:40:47;28.60;;;15.90;;
28625;SDS011;18905;42.668;23.364;2023-12-14T02:43:15;32.25;;;15.70;;
28625;SDS011;18905;42.668;23.364;2023-12-14T02:45:40;25.88;;;15.23;;
28625;SDS011;18905;42.668;23.364;2023-12-14T02:48:06;25.70;;;15.43;;
28625;SDS011;18905;42.668;23.364;2023-12-14T02:50:31;27.05;;;14.95;;
28625;SDS011;18905;42.668;23.364;2023-12-14T02:52:56;25.90;;;14.75;;
28625;SDS011;18905;42.668;23.364;2023-12-14T02:55:22;26.58;;;15.15;;
28625;SDS011;18905;42.668;23.364;2023-12-14T02:57:47;30.95;;;13.93;;
28625;SDS011;18905;42.668;23.364;2023-12-14T03:00:13;27.77;;;15.25;;
28625;SDS011;18905;42.668;23.364;2023-12-14T03:02:38;28.88;;;14.63;;
28625;SDS011;18905;42.668;23.364;2023-12-14T03:05:04;23.58;;;13.02;;
28625;SDS011;18905;42.668;23.364;2023-12-14T03:07:29;22.52;;;12.95;;
28625;SDS011;18905;42.668;23.364;2023-12-14T03:09:55;26.27;;;13.20;;
28625;SDS011;18905;42.668;23.364;2023-12-14T03:12:20;25.17;;;13.13;;
28625;SDS011;18905;42.668;23.364;2023-12-14T03:14:45;26.58;;;13.55;;
28625;SDS011;18905;42.668;23.364;2023-12-14T03:17:11;23.17;;;12.73;;
28625;SDS011;18905;42.668;23.364;2023-12-14T03:19:40;28.15;;;13.75;;
28625;SDS011;18905;42.668;23.364;2023-12-14T03:22:08;24.50;;;13.20;;
28625;SDS011;18905;42.668;23.364;2023-12-14T03:24:37;22.63;;;12.50;;
28625;SDS011;18905;42.668;23.364;2023-12-14T03:27:02;24.52;;;13.23;;
28625;SDS011;18905;42.668;23.364;2023-12-14T03:29:28;21.23;;;12.75;;
28625;SDS011;18905;42.668;23.364;2023-12-14T03:31:55;20.58;;;11.73;;
28625;SDS011;18905;42.668;23.364;2023-12-14T03:34:20;24.08;;;12.88;;
28625;SDS011;18905;42.668;23.364;2023-12-14T03:36:46;24.77;;;12.55;;
28625;SDS011;18905;42.668;23.364;2023-12-14T03:39:11;21.80;;;12.77;;
28625;SDS011;18905;42.668;23.364;2023-12-14T03:41:36;20.55;;;11.98;;
28625;SDS011;18905;42.668;23.364;2023-12-14T03:44:02;20.83;;;12.50;;
28625;SDS011;18905;42.668;23.364;2023-12-14T03:46:27;23.27;;;11.55;;
28625;SDS011;18905;42.668;23.364;2023-12-14T03:48:53;22.58;;;12.10;;
28625;SDS011;18905;42.668;23.364;2023-12-14T03:51:18;23.08;;;11.38;;
28625;SDS011;18905;42.668;23.364;2023-12-14T03:53:45;20.20;;;11.60;;
28625;SDS011;18905;42.668;23.364;2023-12-14T03:56:10;18.08;;;10.43;;
28625;SDS011;18905;42.668;23.364;2023-12-14T03:58:35;20.77;;;10.73;;
28625;SDS011;18905;42.668;23.364;2023-12-14T04:01:01;21.63;;;10.75;;
28625;SDS011;18905;42.668;23.364;2023-12-14T04:03:26;21.23;;;11.23;;
28625;SDS011;18905;42.668;23.364;2023-12-14T04:05:52;22.95;;;12.25;;
28625;SDS011;18905;42.668;23.364;2023-12-14T04:08:17;20.38;;;11.63;;
28625;SDS011;18905;42.668;23.364;2023-12-14T04:10:43;21.33;;;11.15;;
28625;SDS011;18905;42.668;23.364;2023-12-14T04:13:08;24.27;;;10.70;;
28625;SDS011;18905;42.668;23.364;2023-12-14T04:15:33;23.33;;;10.70;;
28625;SDS011;18905;42.668;23.364;2023-12-14T04:17:59;20.00;;;10.95;;
28625;SDS011;18905;42.668;23.364;2023-12-14T04:20:24;18.85;;;10.55;;
28625;SDS011;18905;42.668;23.364;2023-12-14T04:22:49;19.13;;;10.70;;
28625;SDS011;18905;42.668;23.364;2023-12-14T04:25:15;18.15;;;10.10;;
28625;SDS011;18905;42.668;23.364;2023-12-14T04:27:40;18.92;;;10.85;;
28625;SDS011;18905;42.668;23.364;2023-12-14T04:30:06;17.40;;;10.02;;
28625;SDS011;18905;42.668;23.364;2023-12-14T04:32:35;21.58;;;10.05;;
28625;SDS011;18905;42.668;23.364;2023-12-14T04:35:01;17.73;;;9.18;;
28625;SDS011;18905;42.668;23.364;2023-12-14T04:37:27;17.50;;;9.38;;
28625;SDS011;18905;42.668;23.364;2023-12-14T04:39:52;19.08;;;9.75;;
28625;SDS011;18905;42.668;23.364;2023-12-14T04:42:18;19.02;;;9.57;;
28625;SDS011;18905;42.668;23.364;2023-12-14T04:44:43;16.63;;;9.88;;
28625;SDS011;18905;42.668;23.364;2023-12-14T04:47:08;19.52;;;9.38;;
28625;SDS011;18905;42.668;23.364;2023-12-14T04:49:34;18.52;;;10.02;;
28625;SDS011;18905;42.668;23.364;2023-12-14T04:51:59;14.50;;;7.78;;
28625;SDS011;18905;42.668;23.364;2023-12-14T04:54:24;15.60;;;8.95;;
28625;SDS011;18905;42.668;23.364;2023-12-14T04:56:50;18.58;;;9.98;;
28625;SDS011;18905;42.668;23.364;2023-12-14T04:59:15;17.40;;;9.77;;
28625;SDS011;18905;42.668;23.364;2023-12-14T05:01:41;16.95;;;8.77;;
28625;SDS011;18905;42.668;23.364;2023-12-14T05:04:06;18.98;;;9.98;;
28625;SDS011;18905;42.668;23.364;2023-12-14T05:06:31;32.25;;;10.57;;
28625;SDS011;18905;42.668;23.364;2023-12-14T05:08:59;16.90;;;9.15;;
28625;SDS011;18905;42.668;23.364;2023-12-14T05:11:26;15.40;;;8.98;;
28625;SDS011;18905;42.668;23.364;2023-12-14T05:13:51;21.45;;;10.18;;
28625;SDS011;18905;42.668;23.364;2023-12-14T05:16:17;18.65;;;9.77;;
28625;SDS011;18905;42.668;23.364;2023-12-14T05:18:42;17.20;;;9.82;;
28625;SDS011;18905;42.668;23.364;2023-12-14T05:21:08;16.92;;;9.48;;
28625;SDS011;18905;42.668;23.364;2023-12-14T05:23:33;17.75;;;8.85;;
28625;SDS011;18905;42.668;23.364;2023-12-14T05:25:59;17.35;;;9.68;;
28625;SDS011;18905;42.668;23.364;2023-12-14T05:28:24;15.38;;;9.07;;
28625;SDS011;18905;42.668;23.364;2023-12-14T05:30:50;16.90;;;9.82;;
28625;SDS011;18905;42.668;23.364;2023-12-14T05:33:15;14.93;;;8.77;;
28625;SDS011;18905;42.668;23.364;2023-12-14T05:35:40;20.00;;;10.07;;
28625;SDS011;18905;42.668;23.364;2023-12-14T05:38:06;18.55;;;9.30;;
28625;SDS011;18905;42.668;23.364;2023-12-14T05:40:31;17.35;;;9.82;;
28625;SDS011;18905;42.668;23.364;2023-12-14T05:42:57;16.88;;;9.88;;
28625;SDS011;18905;42.668;23.364;2023-12-14T05:45:22;16.70;;;10.52;;
28625;SDS011;18905;42.668;23.364;2023-12-14T05:47:47;18.60;;;9.48;;
28625;SDS011;18905;42.668;23.364;2023-12-14T05:50:13;17.17;;;10.80;;
28625;SDS011;18905;42.668;23.364;2023-12-14T05:52:38;19.70;;;10.38;;
28625;SDS011;18905;42.668;23.364;2023-12-14T05:55:07;19.70;;;10.15;;
28625;SDS011;18905;42.668;23.364;2023-12-14T05:57:35;18.33;;;9.32;;
28625;SDS011;18905;42.668;23.364;2023-12-14T06:00:00;16.63;;;10.20;;
28625;SDS011;18905;42.668;23.364;2023-12-14T06:02:26;21.60;;;11.15;;
28625;SDS011;18905;42.668;23.364;2023-12-14T06:04:51;20.50;;;10.98;;
28625;SDS011;18905;42.668;23.364;2023-12-14T06:07:17;22.92;;;11.05;;
28625;SDS011;18905;42.668;23.364;2023-12-14T06:09:42;18.40;;;11.10;;
28625;SDS011;18905;42.668;23.364;2023-12-14T06:12:08;21.50;;;12.00;;
28625;SDS011;18905;42.668;23.364;2023-12-14T06:14:34;24.08;;;12.68;;
28625;SDS011;18905;42.668;23.364;2023-12-14T06:17:00;18.40;;;10.82;;
28625;SDS011;18905;42.668;23.364;2023-12-14T06:19:25;21.98;;;12.20;;
28625;SDS011;18905;42.668;23.364;2023-12-14T06:21:51;22.38;;;11.55;;
28625;SDS011;18905;42.668;23.364;2023-12-14T06:24:16;18.40;;;10.77;;
28625;SDS011;18905;42.668;23.364;2023-12-14T06:26:42;17.42;;;11.13;;
28625;SDS011;18905;42.668;23.364;2023-12-14T06:29:10;22.98;;;10.93;;
28625;SDS011;18905;42.668;23.364;2023-12-14T06:31:40;26.52;;;13.18;;
28625;SDS011;18905;42.668;23.364;2023-12-14T06:34:05;22.52;;;11.45;;
28625;SDS011;18905;42.668;23.364;2023-12-14T06:36:31;20.10;;;11.18;;
28625;SDS011;18905;42.668;23.364;2023-12-14T06:38:58;21.45;;;11.50;;
28625;SDS011;18905;42.668;23.364;2023-12-14T06:41:24;22.80;;;10.95;;
28625;SDS011;18905;42.668;23.364;2023-12-14T06:43:51;19.77;;;9.48;;
28625;SDS011;18905;42.668;23.364;2023-12-14T06:46:17;16.15;;;10.25;;
28625;SDS011;18905;42.668;23.364;2023-12-14T06:48:43;17.98;;;10.30;;
28625;SDS011;18905;42.668;23.364;2023-12-14T06:51:08;26.67;;;11.70;;
28625;SDS011;18905;42.668;23.364;2023-12-14T06:53:34;20.25;;;12.15;;
28625;SDS011;18905;42.668;23.364;2023-12-14T06:56:00;39.28;;;13.18;;
28625;SDS011;18905;42.668;23.364;2023-12-14T06:58:26;30.60;;;11.98;;
28625;SDS011;18905;42.668;23.364;2023-12-14T07:00:51;23.95;;;11.35;;
28625;SDS011;18905;42.668;23.364;2023-12-14T07:03:16;103.57;;;16.48;;
28625;SDS011;18905;42.668;23.364;2023-12-14T07:05:42;24.25;;;11.77;;
28625;SDS011;18905;42.668;23.364;2023-12-14T07:08:07;25.20;;;11.32;;
28625;SDS011;18905;42.668;23.364;2023-12-14T07:10:33;19.73;;;10.82;;
28625;SDS011;18905;42.668;23.364;2023-12-14T07:12:59;24.15;;;11.73;;
28625;SDS011;18905;42.668;23.364;2023-12-14T07:15:24;21.00;;;11.48;;
28625;SDS011;18905;42.668;23.364;2023-12-14T07:17:50;23.48;;;12.40;;
28625;SDS011;18905;42.668;23.364;2023-12-14T07:20:15;22.00;;;11.70;;
28625;SDS011;18905;42.668;23.364;2023-12-14T07:22:41;27.13;;;12.93;;
28625;SDS011;18905;42.668;23.364;2023-12-14T07:25:06;23.02;;;12.27;;
28625;SDS011;18905;42.668;23.364;2023-12-14T07:27:32;22.27;;;11.15;;
28625;SDS011;18905;42.668;23.364;2023-12-14T07:29:58;20.70;;;12.13;;
28625;SDS011;18905;42.668;23.364;2023-12-14T07:32:23;24.08;;;12.35;;
28625;SDS011;18905;42.668;23.364;2023-12-14T07:34:49;22.95;;;11.85;;
28625;SDS011;18905;42.668;23.364;2023-12-14T07:37:14;25.48;;;12.55;;
28625;SDS011;18905;42.668;23.364;2023-12-14T07:39:40;22.05;;;11.55;;
28625;SDS011;18905;42.668;23.364;2023-12-14T07:42:05;24.20;;;11.55;;
28625;SDS011;18905;42.668;23.364;2023-12-14T07:44:31;23.92;;;12.52;;
28625;SDS011;18905;42.668;23.364;2023-12-14T07:46:59;19.13;;;11.20;;
28625;SDS011;18905;42.668;23.364;2023-12-14T07:49:25;19.70;;;10.43;;
28625;SDS011;18905;42.668;23.364;2023-12-14T07:51:51;22.88;;;11.27;;
28625;SDS011;18905;42.668;23.364;2023-12-14T07:54:16;21.35;;;12.32;;
28625;SDS011;18905;42.668;23.364;2023-12-14T07:56:42;22.50;;;11.70;;
28625;SDS011;18905;42.668;23.364;2023-12-14T07:59:08;17.60;;;11.05;;
28625;SDS011;18905;42.668;23.364;2023-12-14T08:01:34;24.48;;;12.60;;
28625;SDS011;18905;42.668;23.364;2023-12-14T08:03:59;22.45;;;11.80;;
28625;SDS011;18905;42.668;23.364;2023-12-14T08:06:25;34.67;;;11.93;;
28625;SDS011;18905;42.668;23.364;2023-12-14T08:08:50;21.40;;;11.45;;
28625;SDS011;18905;42.668;23.364;2023-12-14T08:11:16;19.02;;;9.85;;
28625;SDS011;18905;42.668;23.364;2023-12-14T08:13:41;19.55;;;9.63;;
28625;SDS011;18905;42.668;23.364;2023-12-14T08:16:07;20.33;;;10.10;;
28625;SDS011;18905;42.668;23.364;2023-12-14T08:18:33;19.15;;;9.55;;
28625;SDS011;18905;42.668;23.364;2023-12-14T08:20:58;21.52;;;10.10;;
28625;SDS011;18905;42.668;23.364;2023-12-14T08:23:24;19.48;;;9.25;;
28625;SDS011;18905;42.668;23.364;2023-12-14T08:25:52;19.55;;;9.52;;
28625;SDS011;18905;42.668;23.364;2023-12-14T08:28:24;19.25;;;10.30;;
28625;SDS011;18905;42.668;23.364;2023-12-14T08:30:50;17.15;;;9.55;;
28625;SDS011;18905;42.668;23.364;2023-12-14T08:33:15;23.52;;;10.48;;
28625;SDS011;18905;42.668;23.364;2023-12-14T08:35:41;19.92;;;9.52;;
28625;SDS011;18905;42.668;23.364;2023-12-14T08:38:06;28.58;;;10.25;;
28625;SDS011;18905;42.668;23.364;2023-12-14T08:40:32;21.52;;;9.85;;
28625;SDS011;18905;42.668;23.364;2023-12-14T08:42:57;22.58;;;9.85;;
28625;SDS011;18905;42.668;23.364;2023-12-14T08:45:23;25.42;;;10.27;;
28625;SDS011;18905;42.668;23.364;2023-12-14T08:47:48;25.77;;;10.43;;
28625;SDS011;18905;42.668;23.364;2023-12-14T08:50:14;20.50;;;10.60;;
28625;SDS011;18905;42.668;23.364;2023-12-14T08:52:39;31.48;;;12.88;;
28625;SDS011;18905;42.668;23.364;2023-12-14T08:55:05;25.13;;;10.55;;
28625;SDS011;18905;42.668;23.364;2023-12-14T08:57:31;19.98;;;8.70;;
28625;SDS011;18905;42.668;23.364;2023-12-14T08:59:56;15.80;;;8.68;;
28625;SDS011;18905;42.668;23.364;2023-12-14T09:02:22;20.85;;;9.93;;
28625;SDS011;18905;42.668;23.364;2023-12-14T09:04:47;23.80;;;8.75;;
28625;SDS011;18905;42.668;23.364;2023-12-14T09:07:12;14.43;;;8.65;;
28625;SDS011;18905;42.668;23.364;2023-12-14T09:09:38;15.27;;;8.23;;
28625;SDS011;18905;42.668;23.364;2023-12-14T09:12:03;17.83;;;7.68;;
28625;SDS011;18905;42.668;23.364;2023-12-14T09:14:29;15.73;;;8.48;;
28625;SDS011;18905;42.668;23.364;2023-12-14T09:16:55;16.77;;;8.75;;
28625;SDS011;18905;42.668;23.364;2023-12-14T09:19:21;17.75;;;8.43;;
28625;SDS011;18905;42.668;23.364;2023-12-14T09:21:46;20.30;;;8.45;;
28625;SDS011;18905;42.668;23.364;2023-12-14T09:24:11;16.25;;;8.88;;
28625;SDS011;18905;42.668;23.364;2023-12-14T09:26:37;16.88;;;7.85;;
28625;SDS011;18905;42.668;23.364;2023-12-14T09:29:02;24.15;;;9.02;;
28625;SDS011;18905;42.668;23.364;2023-12-14T09:31:27;26.00;;;8.65;;
28625;SDS011;18905;42.668;23.364;2023-12-14T09:33:53;23.52;;;9.07;;
28625;SDS011;18905;42.668;23.364;2023-12-14T09:36:18;21.88;;;8.80;;
28625;SDS011;18905;42.668;23.364;2023-12-14T09:38:44;14.45;;;7.85;;
28625;SDS011;18905;42.668;23.364;2023-12-14T09:41:10;14.90;;;8.13;;
28625;SDS011;18905;42.668;23.364;2023-12-14T09:43:36;18.42;;;8.50;;
28625;SDS011;18905;42.668;23.364;2023-12-14T09:46:02;22.67;;;8.70;;
28625;SDS011;18905;42.668;23.364;2023-12-14T09:48:28;19.77;;;8.43;;
28625;SDS011;18905;42.668;23.364;2023-12-14T09:50:54;17.88;;;8.85;;
28625;SDS011;18905;42.668;23.364;2023-12-14T09:53:20;19.98;;;8.88;;
28625;SDS011;18905;42.668;23.364;2023-12-14T09:55:45;20.25;;;7.75;;
28625;SDS011;18905;42.668;23.364;2023-12-14T09:58:11;20.20;;;8.35;;
28625;SDS011;18905;42.668;23.364;2023-12-14T10:00:38;17.70;;;7.93;;
28625;SDS011;18905;42.668;23.364;2023-12-14T10:03:21;20.00;;;9.00;;
28625;SDS011;18905;42.668;23.364;2023-12-14T10:05:51;17.83;;;8.27;;
28625;SDS011;18905;42.668;23.364;2023-12-14T10:08:17;16.63;;;8.10;;
28625;SDS011;18905;42.668;23.364;2023-12-14T10:10:43;13.00;;;7.05;;
28625;SDS011;18905;42.668;23.364;2023-12-14T10:13:14;17.35;;;7.82;;
28625;SDS011;18905;42.668;23.364;2023-12-14T10:15:40;19.17;;;7.10;;
28625;SDS011;18905;42.668;23.364;2023-12-14T10:18:06;13.52;;;7.57;;
28625;SDS011;18905;42.668;23.364;2023-12-14T10:20:32;17.70;;;7.80;;
28625;SDS011;18905;42.668;23.364;2023-12-14T10:22:57;17.98;;;8.15;;
28625;SDS011;18905;42.668;23.364;2023-12-14T10:25:23;24.55;;;8.00;;
28625;SDS011;18905;42.668;23.364;2023-12-14T10:27:48;24.20;;;7.88;;
28625;SDS011;18905;42.668;23.364;2023-12-14T10:30:17;22.40;;;8.57;;
28625;SDS011;18905;42.668;23.364;2023-12-14T10:32:44;21.33;;;8.60;;
28625;SDS011;18905;42.668;23.364;2023-12-14T10:35:12;23.75;;;8.43;;
28625;SDS011;18905;42.668;23.364;2023-12-14T10:37:38;26.58;;;8.85;;
28625;SDS011;18905;42.668;23.364;2023-12-14T10:40:07;28.52;;;10.45;;
28625;SDS011;18905;42.668;23.364;2023-12-14T10:42:35;14.70;;;8.13;;
28625;SDS011;18905;42.668;23.364;2023-12-14T10:45:02;26.90;;;8.60;;
28625;SDS011;18905;42.668;23.364;2023-12-14T10:47:28;18.45;;;9.38;;
28625;SDS011;18905;42.668;23.364;2023-12-14T10:49:54;25.20;;;8.98;;
28625;SDS011;18905;42.668;23.364;2023-12-14T10:52:21;18.48;;;8.88;;
28625;SDS011;18905;42.668;23.364;2023-12-14T10:54:49;28.58;;;10.70;;
28625;SDS011;18905;42.668;23.364;2023-12-14T10:57:23;33.70;;;11.52;;
28625;SDS011;18905;42.668;23.364;2023-12-14T10:59:49;22.42;;;10.43;;
28625;SDS011;18905;42.668;23.364;2023-12-14T11:02:15;22.15;;;10.50;;
28625;SDS011;18905;42.668;23.364;2023-12-14T11:10:41;15.23;;;7.97;;
28625;SDS011;18905;42.668;23.364;2023-12-14T11:13:07;11.15;;;6.10;;
28625;SDS011;18905;42.668;23.364;2023-12-14T11:15:39;15.85;;;7.18;;
28625;SDS011;18905;42.668;23.364;2023-12-14T11:20:47;13.07;;;5.10;;
28625;SDS011;18905;42.668;23.364;2023-12-14T11:23:17;10.57;;;4.57;;
28625;SDS011;18905;42.668;23.364;2023-12-14T11:25:50;6.80;;;3.70;;
28625;SDS011;18905;42.668;23.364;2023-12-14T11:28:17;11.18;;;5.18;;
28625;SDS011;18905;42.668;23.364;2023-12-14T11:30:45;10.90;;;3.40;;
28625;SDS011;18905;42.668;23.364;2023-12-14T11:33:11;4.22;;;2.40;;
28625;SDS011;18905;42.668;23.364;2023-12-14T11:35:38;5.03;;;3.15;;
28625;SDS011;18905;42.668;23.364;2023-12-14T11:38:04;7.32;;;2.88;;
28625;SDS011;18905;42.668;23.364;2023-12-14T11:40:35;3.85;;;2.17;;
28625;SDS011;18905;42.668;23.364;2023-12-14T11:43:02;7.15;;;3.13;;
28625;SDS011;18905;42.668;23.364;2023-12-14T11:45:32;5.63;;;2.40;;
28625;SDS011;18905;42.668;23.364;2023-12-14T11:47:58;2.92;;;1.98;;
28625;SDS011;18905;42.668;23.364;2023-12-14T11:50:24;9.18;;;2.33;;
28625;SDS011;18905;42.668;23.364;2023-12-14T11:52:49;3.30;;;1.90;;
28625;SDS011;18905;42.668;23.364;2023-12-14T11:55:15;2.83;;;1.83;;
28625;SDS011;18905;42.668;23.364;2023-12-14T11:57:47;9.32;;;1.63;;
28625;SDS011;18905;42.668;23.364;2023-12-14T12:00:13;2.92;;;1.73;;
28625;SDS011;18905;42.668;23.364;2023-12-14T12:02:39;3.40;;;1.77;;
28625;SDS011;18905;42.668;23.364;2023-12-14T12:05:08;5.82;;;1.50;;
28625;SDS011;18905;42.668;23.364;2023-12-14T12:07:33;2.20;;;1.33;;
28625;SDS011;18905;42.668;23.364;2023-12-14T12:09:59;2.30;;;1.60;;
28625;SDS011;18905;42.668;23.364;2023-12-14T12:12:24;3.53;;;1.70;;
28625;SDS011;18905;42.668;23.364;2023-12-14T12:14:50;11.50;;;1.50;;
28625;SDS011;18905;42.668;23.364;2023-12-14T12:17:18;5.88;;;1.00;;
28625;SDS011;18905;42.668;23.364;2023-12-14T12:19:45;5.05;;;1.40;;
28625;SDS011;18905;42.668;23.364;2023-12-14T12:22:10;4.22;;;1.30;;
28625;SDS011;18905;42.668;23.364;2023-12-14T12:24:36;3.97;;;1.05;;
28625;SDS011;18905;42.668;23.364;2023-12-14T12:27:02;3.45;;;1.02;;
28625;SDS011;18905;42.668;23.364;2023-12-14T12:29:29;2.95;;;1.20;;
28625;SDS011;18905;42.668;23.364;2023-12-14T12:31:54;2.17;;;1.35;;
28625;SDS011;18905;42.668;23.364;2023-12-14T12:34:20;2.97;;;1.60;;
28625;SDS011;18905;42.668;23.364;2023-12-14T12:36:45;4.93;;;1.60;;
28625;SDS011;18905;42.668;23.364;2023-12-14T12:39:11;2.72;;;1.05;;
28625;SDS011;18905;42.668;23.364;2023-12-14T12:41:36;1.17;;;1.02;;
28625;SDS011;18905;42.668;23.364;2023-12-14T12:44:02;6.15;;;1.25;;
28625;SDS011;18905;42.668;23.364;2023-12-14T12:46:34;4.22;;;1.33;;
28625;SDS011;18905;42.668;23.364;2023-12-14T12:49:00;2.38;;;1.05;;
28625;SDS011;18905;42.668;23.364;2023-12-14T12:51:26;4.50;;;1.92;;
28625;SDS011;18905;42.668;23.364;2023-12-14T12:53:53;6.47;;;1.50;;
28625;SDS011;18905;42.668;23.364;2023-12-14T12:56:19;4.32;;;1.10;;
28625;SDS011;18905;42.668;23.364;2023-12-14T12:58:44;2.53;;;1.60;;
28625;SDS011;18905;42.668;23.364;2023-12-14T13:01:09;8.50;;;1.70;;
28625;SDS011;18905;42.668;23.364;2023-12-14T13:03:35;2.05;;;1.30;;
28625;SDS011;18905;42.668;23.364;2023-12-14T13:06:00;2.17;;;1.05;;
28625;SDS011;18905;42.668;23.364;2023-12-14T13:08:26;6.50;;;1.33;;
28625;SDS011;18905;42.668;23.364;2023-12-14T13:10:51;6.45;;;1.10;;
28625;SDS011;18905;42.668;23.364;2023-12-14T13:13:17;1.48;;;1.00;;
28625;SDS011;18905;42.668;23.364;2023-12-14T13:15:43;4.38;;;1.35;;
28625;SDS011;18905;42.668;23.364;2023-12-14T13:18:08;2.35;;;1.40;;
28625;SDS011;18905;42.668;23.364;2023-12-14T13:20:34;2.17;;;1.20;;
28625;SDS011;18905;42.668;23.364;2023-12-14T13:23:01;2.67;;;1.50;;
28625;SDS011;18905;42.668;23.364;2023-12-14T13:25:27;2.30;;;1.40;;
28625;SDS011;18905;42.668;23.364;2023-12-14T13:27:52;1.70;;;1.15;;
28625;SDS011;18905;42.668;23.364;2023-12-14T13:30:18;3.40;;;1.30;;
28625;SDS011;18905;42.668;23.364;2023-12-14T13:32:44;3.95;;;1.65;;
28625;SDS011;18905;42.668;23.364;2023-12-14T13:35:09;4.57;;;1.83;;
28625;SDS011;18905;42.668;23.364;2023-12-14T13:37:35;1.58;;;1.17;;
28625;SDS011;18905;42.668;23.364;2023-12-14T13:40:00;3.00;;;1.00;;
28625;SDS011;18905;42.668;23.364;2023-12-14T13:42:26;3.83;;;1.40;;
28625;SDS011;18905;42.668;23.364;2023-12-14T13:44:51;1.75;;;1.10;;
28625;SDS011;18905;42.668;23.364;2023-12-14T13:47:17;1.40;;;1.08;;
28625;SDS011;18905;42.668;23.364;2023-12-14T13:49:42;2.92;;;1.60;;
28625;SDS011;18905;42.668;23.364;2023-12-14T13:52:08;4.35;;;1.27;;
28625;SDS011;18905;42.668;23.364;2023-12-14T13:54:34;1.23;;;1.00;;
28625;SDS011;18905;42.668;23.364;2023-12-14T13:57:01;1.88;;;1.15;;
28625;SDS011;18905;42.668;23.364;2023-12-14T13:59:27;3.88;;;1.25;;
28625;SDS011;18905;42.668;23.364;2023-12-14T14:01:52;6.05;;;3.60;;
28625;SDS011;18905;42.668;23.364;2023-12-14T14:04:18;7.25;;;3.45;;
28625;SDS011;18905;42.668;23.364;2023-12-14T14:06:44;5.72;;;1.75;;
28625;SDS011;18905;42.668;23.364;2023-12-14T14:09:09;2.50;;;1.10;;
28625;SDS011;18905;42.668;23.364;2023-12-14T14:11:35;1.33;;;1.00;;
28625;SDS011;18905;42.668;23.364;2023-12-14T14:14:01;1.95;;;0.90;;
28625;SDS011;18905;42.668;23.364;2023-12-14T14:16:26;2.17;;;1.08;;